createdAt,value
2017-08-23T00:00:36.893Z,79.20
2017-08-23T00:03:04.394Z,79.20
2017-08-23T00:05:31.931Z,79.30
2017-08-23T00:07:59.448Z,79.20
2017-08-23T00:10:26.994Z,79.30
2017-08-23T00:12:54.544Z,79.20
2017-08-23T00:15:22.107Z,79.30
2017-08-23T00:17:49.643Z,79.40
2017-08-23T00:20:18.304Z,79.40
2017-08-23T00:22:46.879Z,79.50
2017-08-23T00:25:14.479Z,79.50
2017-08-23T00:27:42.024Z,79.40
2017-08-23T00:30:09.553Z,79.50
2017-08-23T00:32:37.111Z,79.50
2017-08-23T00:35:04.632Z,79.60
2017-08-23T00:37:32.143Z,79.70
2017-08-23T00:39:59.686Z,79.80
2017-08-23T00:42:27.217Z,79.80
2017-08-23T00:44:54.759Z,79.80
2017-08-23T00:47:22.275Z,79.80
2017-08-23T00:49:49.836Z,79.90
2017-08-23T00:52:18.539Z,79.90
2017-08-23T00:54:46.549Z,79.90
2017-08-23T00:57:14.079Z,80.10
2017-08-23T00:59:41.604Z,80.10
2017-08-23T01:02:09.138Z,80.10
2017-08-23T01:04:36.668Z,80.20
2017-08-23T01:07:04.215Z,80.20
2017-08-23T01:09:31.726Z,80.20
2017-08-23T01:11:59.246Z,80.20
2017-08-23T01:14:26.780Z,80.30
2017-08-23T01:16:54.292Z,80.30
2017-08-23T01:19:21.824Z,80.30
2017-08-23T01:21:49.716Z,80.40
2017-08-23T01:24:18.253Z,80.40
2017-08-23T01:26:46.157Z,80.50
2017-08-23T01:29:13.665Z,80.50
2017-08-23T01:31:41.181Z,80.50
2017-08-23T01:34:08.677Z,80.60
2017-08-23T01:36:36.201Z,80.70
2017-08-23T01:39:03.724Z,80.70
2017-08-23T01:41:31.279Z,80.70
2017-08-23T01:43:58.791Z,80.80
2017-08-23T01:46:26.301Z,80.70
2017-08-23T01:48:53.831Z,80.80
2017-08-23T01:51:21.339Z,80.90
2017-08-23T01:53:48.887Z,80.90
2017-08-23T01:56:16.940Z,80.80
2017-08-23T01:58:44.451Z,80.90
2017-08-23T02:01:11.968Z,81.00
2017-08-23T02:03:39.503Z,80.90
2017-08-23T02:06:06.993Z,81.00
2017-08-23T02:08:34.492Z,81.00
2017-08-23T02:11:02.014Z,81.10
2017-08-23T02:13:29.531Z,81.20
2017-08-23T02:15:57.055Z,81.20
2017-08-23T02:18:24.558Z,81.30
2017-08-23T02:20:52.103Z,81.40
2017-08-23T02:23:19.609Z,81.50
2017-08-23T02:25:48.260Z,81.50
2017-08-23T02:28:16.184Z,81.60
2017-08-23T02:30:43.702Z,81.60
2017-08-23T02:33:11.240Z,81.60
2017-08-23T02:35:38.734Z,81.60
2017-08-23T02:38:06.273Z,81.60
2017-08-23T02:40:33.770Z,81.70
2017-08-23T02:43:01.314Z,81.70
2017-08-23T02:45:28.842Z,81.80
2017-08-23T02:47:56.347Z,81.80
2017-08-23T02:50:23.879Z,81.70
2017-08-23T02:52:51.391Z,81.70
2017-08-23T02:55:18.920Z,81.70
2017-08-23T02:57:47.396Z,81.60
2017-08-23T03:00:14.927Z,81.70
2017-08-23T03:02:42.462Z,81.70
2017-08-23T03:05:09.971Z,81.70
2017-08-23T03:07:37.512Z,81.60
2017-08-23T03:10:05.011Z,81.70
2017-08-23T03:12:32.505Z,81.90
2017-08-23T03:15:00.025Z,81.90
2017-08-23T03:17:27.531Z,81.90
2017-08-23T03:19:55.052Z,81.90
2017-08-23T03:22:22.563Z,81.80
2017-08-23T03:24:50.092Z,81.80
2017-08-23T03:27:18.723Z,81.70
2017-08-23T03:29:47.640Z,81.60
2017-08-23T03:32:15.161Z,81.70
2017-08-23T03:34:42.670Z,81.60
2017-08-23T03:37:10.206Z,81.50
2017-08-23T03:39:37.719Z,81.50
2017-08-23T03:42:05.246Z,81.60
2017-08-23T03:44:32.749Z,81.60
2017-08-23T03:47:00.282Z,81.50
2017-08-23T03:49:27.800Z,81.60
2017-08-23T03:51:55.293Z,81.60
2017-08-23T03:54:22.809Z,81.70
2017-08-23T03:56:50.302Z,81.60
2017-08-23T03:59:17.862Z,81.50
2017-08-23T04:01:45.370Z,81.50
2017-08-23T04:04:12.871Z,81.50
2017-08-23T04:06:40.415Z,81.50
2017-08-23T04:09:07.948Z,81.50
2017-08-23T04:11:35.467Z,81.70
2017-08-23T04:14:02.969Z,81.70
2017-08-23T04:16:30.489Z,81.70
2017-08-23T04:18:57.985Z,81.50
2017-08-23T04:21:25.504Z,81.60
2017-08-23T04:23:53.092Z,81.50
2017-08-23T04:26:20.596Z,81.50
2017-08-23T04:28:48.428Z,81.50
2017-08-23T04:31:17.413Z,81.60
2017-08-23T04:33:44.943Z,81.50
2017-08-23T04:36:12.442Z,81.40
2017-08-23T04:38:39.960Z,81.50
2017-08-23T04:41:07.489Z,81.40
2017-08-23T04:43:34.981Z,81.30
2017-08-23T04:46:02.505Z,81.30
2017-08-23T04:48:30.023Z,81.30
2017-08-23T04:50:57.541Z,81.10
2017-08-23T04:53:25.047Z,81.20
2017-08-23T04:55:52.551Z,81.20
2017-08-23T04:58:20.076Z,81.20
2017-08-23T05:00:48.228Z,81.20
2017-08-23T05:03:16.196Z,81.10
2017-08-23T05:05:43.690Z,81.10
2017-08-23T05:08:11.218Z,81.20
2017-08-23T05:10:38.713Z,81.00
2017-08-23T05:13:06.219Z,80.80
2017-08-23T05:15:33.736Z,80.90
2017-08-23T05:18:01.252Z,80.90
2017-08-23T05:20:28.820Z,81.20
2017-08-23T05:22:56.322Z,81.00
2017-08-23T05:25:23.842Z,81.00
2017-08-23T05:27:51.349Z,80.90
2017-08-23T05:30:18.847Z,80.70
2017-08-23T05:32:47.277Z,80.60
2017-08-23T05:35:14.782Z,80.60
2017-08-23T05:37:42.313Z,80.60
2017-08-23T05:40:09.811Z,80.70
2017-08-23T05:42:37.397Z,80.60
2017-08-23T05:45:04.922Z,80.40
2017-08-23T05:47:32.448Z,80.30
2017-08-23T05:49:59.973Z,80.00
2017-08-23T05:52:27.477Z,79.90
2017-08-23T05:54:54.992Z,79.70
2017-08-23T05:57:22.498Z,79.80
2017-08-23T05:59:50.026Z,79.80
2017-08-23T06:02:18.095Z,79.00
2017-08-23T06:04:46.285Z,79.40
2017-08-23T06:07:13.802Z,79.40
2017-08-23T06:09:41.314Z,79.30
2017-08-23T06:12:08.839Z,79.20
2017-08-23T06:14:36.330Z,79.50
2017-08-23T06:17:03.875Z,79.70
2017-08-23T06:19:31.374Z,79.50
2017-08-23T06:21:58.885Z,79.50
2017-08-23T06:24:26.416Z,79.80
2017-08-23T06:26:53.917Z,79.10
2017-08-23T06:29:21.461Z,79.60
2017-08-23T06:31:48.968Z,80.10
2017-08-23T06:34:17.503Z,80.00
2017-08-23T06:36:45.062Z,80.00
2017-08-23T06:39:12.596Z,79.50
2017-08-23T06:41:40.121Z,78.80
2017-08-23T06:44:07.647Z,79.30
2017-08-23T06:46:35.184Z,78.70
2017-08-23T06:49:02.698Z,78.10
2017-08-23T06:51:30.256Z,77.70
2017-08-23T06:53:57.757Z,77.70
2017-08-23T06:56:25.276Z,77.30
2017-08-23T06:58:52.809Z,77.20
2017-08-23T07:01:20.338Z,76.50
2017-08-23T07:03:48.023Z,76.20
2017-08-23T07:06:16.790Z,76.70
2017-08-23T07:08:44.319Z,76.00
2017-08-23T07:11:11.826Z,75.10
2017-08-23T07:13:39.343Z,75.10
2017-08-23T07:16:06.898Z,74.10
2017-08-23T07:18:34.416Z,74.20
2017-08-23T07:21:01.964Z,74.20
2017-08-23T07:23:29.488Z,73.30
2017-08-23T07:25:57.043Z,73.70
2017-08-23T07:28:24.571Z,72.70
2017-08-23T07:30:52.363Z,71.30
2017-08-23T07:33:19.896Z,70.30
2017-08-23T07:35:48.304Z,69.90
2017-08-23T07:38:16.379Z,70.00
2017-08-23T07:40:43.939Z,71.60
2017-08-23T07:43:11.453Z,70.70
2017-08-23T07:45:38.969Z,70.60
2017-08-23T07:48:06.483Z,70.40
2017-08-23T07:50:34.019Z,68.70
2017-08-23T07:53:01.528Z,69.40
2017-08-23T07:55:29.082Z,68.00
2017-08-23T07:57:56.631Z,68.60
2017-08-23T08:00:24.175Z,68.70
2017-08-23T08:02:52.079Z,69.20
2017-08-23T08:05:19.590Z,68.80
2017-08-23T08:07:47.833Z,67.80
2017-08-23T08:10:15.376Z,68.60
2017-08-23T08:12:42.904Z,66.80
2017-08-23T08:15:10.405Z,67.50
2017-08-23T08:17:37.932Z,67.90
2017-08-23T08:20:05.443Z,67.30
2017-08-23T08:22:33.007Z,66.50
2017-08-23T08:25:00.503Z,64.90
2017-08-23T08:27:28.018Z,65.00
2017-08-23T08:29:55.547Z,65.90
2017-08-23T08:32:23.067Z,66.30
2017-08-23T08:34:50.610Z,66.70
2017-08-23T08:37:18.117Z,65.90
2017-08-23T08:39:46.482Z,64.70
2017-08-23T08:42:14.005Z,65.30
2017-08-23T08:44:41.549Z,63.90
2017-08-23T08:47:09.062Z,65.00
2017-08-23T08:49:36.568Z,65.50
2017-08-23T08:52:04.094Z,65.20
2017-08-23T08:54:31.617Z,63.60
2017-08-23T08:56:59.151Z,63.40
2017-08-23T08:59:26.666Z,63.50
2017-08-23T09:01:54.268Z,64.10
2017-08-23T09:04:21.810Z,63.10
2017-08-23T09:06:49.369Z,62.40
2017-08-23T09:09:16.944Z,62.60
2017-08-23T09:11:44.509Z,63.20
2017-08-23T09:14:12.069Z,62.40
2017-08-23T09:16:39.584Z,63.40
2017-08-23T09:19:07.178Z,61.70
2017-08-23T09:21:34.759Z,61.80
2017-08-23T09:24:02.300Z,61.70
2017-08-23T09:26:29.820Z,61.50
2017-08-23T09:28:57.361Z,62.80
2017-08-23T09:31:24.879Z,62.70
2017-08-23T09:33:52.396Z,60.80
2017-08-23T09:36:19.947Z,60.40
2017-08-23T09:38:48.151Z,61.30
2017-08-23T09:41:16.388Z,60.50
2017-08-23T09:43:43.911Z,60.10
2017-08-23T09:46:11.451Z,60.10
2017-08-23T09:48:38.989Z,61.10
2017-08-23T09:51:06.554Z,60.10
2017-08-23T09:53:34.076Z,60.80
2017-08-23T09:56:01.581Z,60.30
2017-08-23T09:58:29.119Z,57.90
2017-08-23T10:00:56.720Z,59.80
2017-08-23T10:03:24.277Z,58.90
2017-08-23T10:05:51.789Z,58.50
2017-08-23T10:08:20.338Z,58.50
2017-08-23T10:10:49.109Z,58.90
2017-08-23T10:13:17.528Z,57.30
2017-08-23T10:15:45.042Z,58.40
2017-08-23T10:18:12.554Z,58.70
2017-08-23T10:20:40.098Z,58.70
2017-08-23T10:23:07.611Z,56.50
2017-08-23T10:25:35.699Z,56.50
2017-08-23T10:28:03.234Z,58.20
2017-08-23T10:30:30.766Z,56.40
2017-08-23T10:32:58.265Z,57.00
2017-08-23T10:35:25.801Z,56.90
2017-08-23T10:37:53.326Z,56.00
2017-08-23T10:40:20.859Z,56.10
2017-08-23T10:42:48.383Z,54.90
2017-08-23T10:45:16.410Z,55.00
2017-08-23T10:47:43.947Z,55.40
2017-08-23T10:50:11.458Z,56.10
2017-08-23T10:52:39.030Z,57.00
2017-08-23T10:55:06.560Z,57.40
2017-08-23T10:57:34.093Z,56.70
2017-08-23T11:00:01.649Z,56.90
2017-08-23T11:02:29.163Z,56.40
2017-08-23T11:04:56.695Z,56.10
2017-08-23T11:07:24.199Z,56.50
2017-08-23T11:09:51.762Z,57.00
2017-08-23T11:12:19.262Z,58.80
2017-08-23T11:14:47.802Z,56.10
2017-08-23T11:17:15.325Z,56.00
2017-08-23T11:19:42.873Z,57.10
2017-08-23T11:22:11.546Z,56.20
2017-08-23T11:24:39.078Z,56.70
2017-08-23T11:27:06.646Z,56.60
2017-08-23T11:29:34.162Z,57.10
2017-08-23T11:32:01.698Z,57.00
2017-08-23T11:34:29.232Z,56.20
2017-08-23T11:36:56.770Z,56.30
2017-08-23T11:39:24.297Z,55.80
2017-08-23T11:41:51.816Z,55.20
2017-08-23T11:44:19.339Z,56.20
2017-08-23T11:46:46.850Z,57.20
2017-08-23T11:49:14.372Z,58.60
2017-08-23T11:51:41.899Z,59.40
2017-08-23T11:54:10.780Z,58.10
2017-08-23T11:56:38.291Z,56.70
2017-08-23T11:59:05.800Z,55.70
2017-08-23T12:01:33.327Z,55.40
2017-08-23T12:04:00.835Z,57.90
2017-08-23T12:06:28.410Z,57.00
2017-08-23T12:08:55.960Z,56.70
2017-08-23T12:11:23.473Z,57.50
2017-08-23T12:13:50.992Z,56.70
2017-08-23T12:16:18.526Z,56.00
2017-08-23T12:18:46.440Z,56.80
2017-08-23T12:21:13.954Z,57.50
2017-08-23T12:23:41.492Z,57.70
2017-08-23T12:26:09.015Z,56.80
2017-08-23T12:28:36.548Z,56.70
2017-08-23T12:31:04.068Z,56.70
2017-08-23T12:33:31.598Z,57.90
2017-08-23T12:35:59.117Z,57.30
2017-08-23T12:38:26.638Z,55.40
2017-08-23T12:40:54.151Z,56.30
2017-08-23T12:43:21.687Z,55.90
2017-08-23T12:45:49.235Z,55.70
2017-08-23T12:48:17.305Z,53.70
2017-08-23T12:50:44.839Z,54.20
2017-08-23T12:53:12.344Z,53.20
2017-08-23T12:55:39.872Z,53.50
2017-08-23T12:58:07.389Z,53.40
2017-08-23T13:00:34.933Z,53.90
2017-08-23T13:03:02.429Z,53.80
2017-08-23T13:05:29.938Z,54.50
2017-08-23T13:07:57.453Z,55.40
2017-08-23T13:10:24.955Z,55.30
2017-08-23T13:12:52.485Z,55.10
2017-08-23T13:15:19.990Z,54.90
2017-08-23T13:17:48.415Z,53.40
2017-08-23T13:20:16.772Z,53.50
2017-08-23T13:22:44.968Z,52.90
2017-08-23T13:25:12.472Z,55.00
2017-08-23T13:27:39.980Z,53.40
2017-08-23T13:30:07.504Z,53.40
2017-08-23T13:32:35.015Z,53.30
2017-08-23T13:35:02.552Z,52.30
2017-08-23T13:37:30.053Z,53.70
2017-08-23T13:39:57.595Z,55.50
2017-08-23T13:42:25.103Z,54.70
2017-08-23T13:44:52.616Z,53.00
2017-08-23T13:47:20.147Z,55.10
2017-08-23T13:49:48.791Z,55.00
2017-08-23T13:52:16.921Z,54.20
2017-08-23T13:54:44.437Z,53.30
2017-08-23T13:57:11.952Z,53.40
2017-08-23T13:59:39.464Z,53.50
2017-08-23T14:02:07.005Z,53.20
2017-08-23T14:04:35.280Z,53.30
2017-08-23T14:07:02.786Z,53.90
2017-08-23T14:09:30.363Z,53.40
2017-08-23T14:11:57.872Z,54.80
2017-08-23T14:14:25.408Z,54.80
2017-08-23T14:16:52.924Z,55.90
2017-08-23T14:19:20.433Z,55.40
2017-08-23T14:21:48.173Z,56.10
2017-08-23T14:24:15.704Z,56.00
2017-08-23T14:26:43.214Z,55.70
2017-08-23T14:29:10.724Z,55.90
2017-08-23T14:31:38.242Z,56.50
2017-08-23T14:34:05.756Z,57.60
2017-08-23T14:36:33.295Z,55.90
2017-08-23T14:39:00.807Z,56.70
2017-08-23T14:41:28.330Z,56.40
2017-08-23T14:43:55.839Z,56.80
2017-08-23T14:46:23.412Z,56.30
2017-08-23T14:48:50.915Z,56.40
2017-08-23T14:51:18.424Z,56.70
2017-08-23T14:53:46.647Z,56.70
2017-08-23T14:56:14.200Z,56.90
2017-08-23T14:58:41.742Z,56.00
2017-08-23T15:01:09.261Z,55.40
2017-08-23T15:03:36.781Z,56.30
2017-08-23T15:06:04.333Z,55.10
2017-08-23T15:08:31.878Z,54.50
2017-08-23T15:10:59.382Z,53.70
2017-08-23T15:13:26.910Z,54.80
2017-08-23T15:15:54.594Z,55.50
2017-08-23T15:18:22.125Z,56.30
2017-08-23T15:20:49.683Z,55.70
2017-08-23T15:23:17.199Z,56.00
2017-08-23T15:25:44.752Z,57.00
2017-08-23T15:28:12.406Z,58.90
2017-08-23T15:30:39.959Z,58.20
2017-08-23T15:33:07.605Z,58.70
2017-08-23T15:35:35.189Z,59.70
2017-08-23T15:38:02.933Z,58.90
2017-08-23T15:40:30.679Z,57.00
2017-08-23T15:42:58.472Z,58.10
2017-08-23T15:45:26.040Z,56.00
2017-08-23T15:47:53.582Z,57.60
2017-08-23T15:50:22.487Z,56.70
2017-08-23T15:52:50.089Z,57.20
2017-08-23T15:55:18.264Z,58.10
2017-08-23T15:57:45.784Z,57.70
2017-08-23T16:00:13.366Z,56.70
2017-08-23T16:02:40.933Z,57.40
2017-08-23T16:05:08.517Z,57.20
2017-08-23T16:07:36.056Z,58.30
2017-08-23T16:10:03.586Z,59.00
2017-08-23T16:12:31.092Z,58.40
2017-08-23T16:14:58.613Z,58.50
2017-08-23T16:17:26.131Z,57.80
2017-08-23T16:19:53.761Z,58.50
2017-08-23T16:22:21.317Z,58.40
2017-08-23T16:24:48.837Z,59.70
2017-08-23T16:27:17.528Z,59.70
2017-08-23T16:29:45.083Z,59.20
2017-08-23T16:32:12.585Z,59.20
2017-08-23T16:34:40.146Z,59.60
2017-08-23T16:37:07.653Z,59.90
2017-08-23T16:39:35.175Z,60.40
2017-08-23T16:42:02.690Z,60.50
2017-08-23T16:44:30.469Z,60.30
2017-08-23T16:46:58.937Z,61.10
2017-08-23T16:49:26.448Z,61.90
2017-08-23T16:51:53.978Z,62.30
2017-08-23T16:54:21.526Z,62.80
2017-08-23T16:56:49.055Z,62.20
2017-08-23T16:59:17.054Z,63.60
2017-08-23T17:01:44.590Z,63.10
2017-08-23T17:04:12.095Z,63.90
2017-08-23T17:06:40.642Z,63.70
2017-08-23T17:09:08.174Z,64.40
2017-08-23T17:11:35.685Z,65.00
2017-08-23T17:14:03.216Z,65.30
2017-08-23T17:16:30.770Z,64.70
2017-08-23T17:18:58.311Z,64.70
2017-08-23T17:21:25.889Z,66.20
2017-08-23T17:23:53.516Z,66.20
2017-08-23T17:26:21.054Z,66.00
2017-08-23T17:28:48.614Z,66.70
2017-08-23T17:31:16.621Z,66.70
2017-08-23T17:33:44.177Z,66.60
2017-08-23T17:36:11.729Z,66.50
2017-08-23T17:38:39.252Z,66.60
2017-08-23T17:41:06.808Z,67.10
2017-08-23T17:43:34.363Z,67.30
2017-08-23T17:46:01.912Z,67.60
2017-08-23T17:48:29.413Z,67.10
2017-08-23T17:50:56.959Z,68.00
2017-08-23T17:53:24.463Z,67.30
2017-08-23T17:55:51.970Z,67.80
2017-08-23T17:58:19.494Z,67.20
2017-08-23T18:00:47.973Z,68.10
2017-08-23T18:03:15.510Z,67.60
2017-08-23T18:05:43.025Z,67.50
2017-08-23T18:08:10.558Z,67.50
2017-08-23T18:10:38.100Z,67.40
2017-08-23T18:13:05.651Z,67.50
2017-08-23T18:15:33.150Z,67.60
2017-08-23T18:18:00.694Z,67.20
2017-08-23T18:20:28.233Z,67.00
2017-08-23T18:22:55.837Z,67.30
2017-08-23T18:25:23.356Z,67.00
2017-08-23T18:27:50.887Z,66.70
2017-08-23T18:30:18.406Z,67.50
2017-08-23T18:32:46.692Z,66.80
2017-08-23T18:35:14.297Z,67.40
2017-08-23T18:37:41.815Z,67.30
2017-08-23T18:40:09.427Z,67.30
2017-08-23T18:42:36.992Z,67.20
2017-08-23T18:45:04.566Z,67.10
2017-08-23T18:47:32.178Z,67.40
2017-08-23T18:49:59.720Z,67.30
2017-08-23T18:52:27.330Z,66.90
2017-08-23T18:54:54.831Z,66.90
2017-08-23T18:57:22.358Z,67.00
2017-08-23T18:59:49.875Z,67.00
2017-08-23T19:02:18.765Z,67.20
2017-08-23T19:04:47.423Z,67.30
2017-08-23T19:07:14.937Z,67.50
2017-08-23T19:09:42.513Z,67.50
2017-08-23T19:12:10.026Z,67.70
2017-08-23T19:14:37.671Z,67.60
2017-08-23T19:17:05.185Z,67.80
2017-08-23T19:19:32.708Z,68.00
2017-08-23T19:22:00.249Z,68.00
2017-08-23T19:24:27.969Z,68.40
2017-08-23T19:26:55.489Z,68.30
2017-08-23T19:29:23.138Z,68.40
2017-08-23T19:31:50.684Z,68.20
2017-08-23T19:34:19.131Z,68.20
2017-08-23T19:36:46.731Z,68.40
2017-08-23T19:39:14.369Z,68.50
2017-08-23T19:41:41.918Z,68.80
2017-08-23T19:44:09.473Z,68.80
2017-08-23T19:46:37.034Z,68.60
2017-08-23T19:49:05.072Z,68.70
2017-08-23T19:51:32.621Z,68.80
2017-08-23T19:54:01.287Z,68.70
2017-08-23T19:56:28.918Z,68.90
2017-08-23T19:58:56.499Z,68.60
2017-08-23T20:01:24.109Z,68.90
2017-08-23T20:03:51.658Z,68.80
2017-08-23T20:06:19.293Z,69.10
2017-08-23T20:08:47.767Z,69.10
2017-08-23T20:11:15.645Z,69.10
2017-08-23T20:13:43.157Z,69.00
2017-08-23T20:16:11.097Z,69.30
2017-08-23T20:18:38.641Z,69.30
2017-08-23T20:21:06.209Z,69.10
2017-08-23T20:23:33.950Z,69.30
2017-08-23T20:26:01.503Z,69.30
2017-08-23T20:28:29.242Z,69.60
2017-08-23T20:30:57.081Z,69.30
2017-08-23T20:33:24.637Z,69.50
2017-08-23T20:35:52.581Z,69.40
2017-08-23T20:38:20.155Z,69.60
2017-08-23T20:40:47.838Z,69.50
2017-08-23T20:43:15.409Z,69.60
2017-08-23T20:45:42.908Z,69.60
2017-08-23T20:48:10.402Z,69.80
2017-08-23T20:50:37.913Z,69.80
2017-08-23T20:53:05.427Z,70.00
2017-08-23T20:55:32.943Z,69.70
2017-08-23T20:58:00.525Z,69.90
2017-08-23T21:00:28.057Z,70.20
2017-08-23T21:02:55.604Z,70.20
2017-08-23T21:05:23.101Z,70.40
2017-08-23T21:07:50.625Z,70.60
2017-08-23T21:10:18.854Z,70.70
2017-08-23T21:12:46.866Z,70.70
2017-08-23T21:15:14.362Z,70.80
2017-08-23T21:17:41.896Z,70.90
2017-08-23T21:20:09.389Z,70.90
2017-08-23T21:22:36.882Z,71.10
2017-08-23T21:25:04.395Z,71.10
2017-08-23T21:27:31.935Z,71.20
2017-08-23T21:29:59.463Z,71.30
2017-08-23T21:32:26.956Z,71.30
2017-08-23T21:34:54.469Z,71.50
2017-08-23T21:37:21.974Z,71.40
2017-08-23T21:39:50.011Z,71.20
2017-08-23T21:42:18.063Z,71.30
2017-08-23T21:44:45.595Z,71.40
2017-08-23T21:47:13.117Z,71.60
2017-08-23T21:49:40.649Z,71.70
2017-08-23T21:52:08.175Z,71.80
2017-08-23T21:54:36.014Z,71.90
2017-08-23T21:57:03.563Z,72.00
2017-08-23T21:59:31.067Z,72.40
2017-08-23T22:01:58.611Z,72.60
2017-08-23T22:04:26.122Z,72.70
2017-08-23T22:06:53.633Z,73.00
2017-08-23T22:09:21.159Z,73.10
2017-08-23T22:11:48.676Z,73.10
2017-08-23T22:14:17.169Z,73.30
2017-08-23T22:16:44.773Z,73.70
2017-08-23T22:19:12.309Z,74.00
2017-08-23T22:21:39.812Z,74.00
2017-08-23T22:24:07.335Z,74.00
2017-08-23T22:26:34.850Z,74.10
2017-08-23T22:29:02.341Z,74.50
2017-08-23T22:31:29.868Z,75.00
2017-08-23T22:33:57.376Z,75.30
2017-08-23T22:36:24.923Z,75.60
2017-08-23T22:38:52.422Z,76.10
2017-08-23T22:41:19.969Z,76.40
2017-08-23T22:43:48.292Z,76.40
2017-08-23T22:46:15.813Z,76.60
2017-08-23T22:48:43.323Z,76.90
2017-08-23T22:51:10.840Z,77.20
2017-08-23T22:53:38.353Z,77.20
2017-08-23T22:56:05.857Z,77.20
2017-08-23T22:58:33.383Z,77.80
2017-08-23T23:01:00.886Z,78.20
2017-08-23T23:03:28.405Z,78.20
2017-08-23T23:05:55.925Z,78.50
2017-08-23T23:08:23.449Z,78.40
2017-08-23T23:10:50.949Z,78.60
2017-08-23T23:13:18.446Z,78.40
2017-08-23T23:15:45.990Z,78.70
2017-08-23T23:18:13.497Z,78.70
2017-08-23T23:20:41.017Z,78.80
2017-08-23T23:23:08.529Z,78.70
2017-08-23T23:25:36.061Z,78.70
2017-08-23T23:28:03.576Z,78.00
2017-08-23T23:30:31.090Z,78.50
2017-08-23T23:32:58.586Z,78.20
2017-08-23T23:35:26.085Z,78.90
2017-08-23T23:37:53.619Z,78.70
2017-08-23T23:40:21.120Z,78.80
2017-08-23T23:42:48.635Z,78.90
2017-08-23T23:45:16.879Z,79.00
2017-08-23T23:47:44.397Z,79.20
2017-08-23T23:50:11.907Z,79.30
2017-08-23T23:52:39.438Z,79.70
2017-08-23T23:55:06.971Z,79.80
2017-08-23T23:57:34.478Z,79.70
